Weather observations for the past three days for
Fresno Chandler Executive Airport
Imperial (Metric)
Date Time (pdt) Wind (mph) Vis. (mi.) Weather Sky Cond. Temperature (ºF) Relative Humidity Wind Chill (°F) Heat Index (°F) Pressure Precipitation (in)
Air Dwpt 6 hour altimeter (in) sea level (mb) 1 hr 3 hr 6 hr
Max. Min.
02 16:15 S 7 10.00 Fair CLR 87.8 44.6 22% 85 29.77 0.0
02 15:55 Vrbl 3 10.00 Fair CLR 87.8 42.8 21% 84 29.78 0.0
02 15:35 SE 8 10.00 Fair CLR 87.8 42.8 21% 84 29.8 0.0
02 15:15 S 12 10.00 Fair CLR 87.8 42.8 21% 84 29.81 0.0
02 14:55 SW 8 10.00 Fair CLR 87.8 44.6 22% 85 29.82 0.0
02 14:35 W 9 10.00 Fair CLR 86 44.6 24% 83 29.83 0.0
02 14:15 Vrbl 5 10.00 Fair CLR 86 46.4 25% 83 29.84 0.0
02 13:55 Vrbl 5 10.00 Fair CLR 86 48.2 27% 83 29.85 0.0
02 13:35 Calm 10.00 Fair CLR 84.2 48.2 29% 82 29.85 0.0
02 13:15 Vrbl 6 10.00 Fair CLR 84.2 51.8 33% 82 29.86 0.0
02 12:55 S 6 10.00 Fair CLR 84.2 51.8 33% 82 29.87 0.0
02 12:35 S 5 10.00 Fair CLR 82.4 48.2 30% 81 29.87 0.0
02 12:10 Vrbl 5 10.00 Fair CLR 82.4 53.6 37% 81 29.88 0.0
02 11:50 Calm 10.00 Fair CLR 80.6 55.4 42% 81 29.88 0.0
02 11:30 S 6 10.00 Fair CLR 80.6 55.4 42% 81 29.89 0.0
02 11:10 Vrbl 3 10.00 Fair CLR 78.8 55.4 45% 79 29.9 0.0
02 10:50 Calm 10.00 Fair CLR 77 55.4 47% 79 29.9 0.0
02 10:30 S 6 10.00 Fair CLR 75.2 55.4 50% 78 29.9 0.0
02 10:10 E 5 10.00 Fair CLR 75.2 55.4 50% 78 29.9 0.0
02 09:55 E 6 10.00 Fair CLR 73.4 55.4 53% 29.9 0.0
02 09:35 NE 5 10.00 Fair CLR 71.6 55.4 57% 29.9 0.0
02 09:15 N 5 10.00 Fair CLR 69.8 55.4 60% 29.9 0.0
02 08:55 N 3 10.00 Fair CLR 68 53.6 60% 29.9 0.0
02 08:30 NW 6 10.00 Fair CLR 66.2 53.6 64% 29.9 0.0
02 08:10 NW 5 10.00 Fair CLR 64.4 55.4 73% 29.9 0.0
02 07:50 NW 6 10.00 Fair CLR 62.6 55.4 77% 29.89 0.0
02 07:30 NW 6 10.00 Fair CLR 60.8 55.4 83% 29.89 0.0
02 07:10 NW 6 10.00 Fair CLR 59 55.4 88% 29.88 0.0
02 06:50 NW 5 9.00 Fair CLR 59 57.2 94% 29.87 0.0
02 06:30 NW 6 10.00 Fair CLR 59 57.2 94% 29.87 0.0
02 06:10 W 3 10.00 Fair CLR 57.2 57.2 100% 29.86 0.0
02 05:55 W 5 10.00 Fair CLR 59 57.2 94% 29.86 0.0
02 05:35 W 3 10.00 Fair CLR 59 57.2 94% 29.85 0.0
02 05:15 W 6 10.00 Fair CLR 60.8 57.2 88% 29.85 0.0
02 04:55 W 5 10.00 Fair CLR 62.6 55.4 77% 29.85 0.0
02 04:35 Calm 10.00 Fair CLR 62.6 55.4 77% 29.85 0.0
02 04:10 Calm 10.00 Fair CLR 62.6 55.4 77% 29.85 0.0
02 03:50 N 6 10.00 Fair CLR 64.4 55.4 73% 29.84 0.0
02 03:30 N 5 10.00 Fair CLR 64.4 55.4 73% 29.85 0.0
02 03:15 N 6 10.00 Fair CLR 64.4 55.4 73% 29.85 0.0
02 02:50 Calm 10.00 Fair CLR 64.4 55.4 73% 29.86 0.0
02 02:30 NW 5 10.00 Fair CLR 64.4 55.4 73% 29.87 0.0
02 02:10 NW 8 10.00 Fair CLR 64.4 55.4 73% 29.87 0.0
02 01:50 NW 6 10.00 Fair CLR 64.4 55.4 73% 29.87 0.0
02 01:30 NW 6 10.00 Fair CLR 66.2 57.2 73% 29.87 0.0
02 01:15 NW 8 10.00 Fair CLR 66.2 57.2 73% 29.88 0.0
02 00:55 W 6 10.00 Fair CLR 66.2 57.2 73% 29.88 0.0
02 00:35 W 7 10.00 Fair CLR 66.2 57.2 73% 29.88 0.0
02 00:15 W 8 10.00 Fair CLR 68 57.2 69% 29.88 0.0
01 23:55 W 9 10.00 Fair CLR 71.6 57.2 61% 29.87 0.0
01 23:35 NW 8 10.00 Fair CLR 71.6 57.2 61% 29.87 0.0
01 23:15 NW 8 10.00 Fair CLR 73.4 57.2 57% 29.87 0.0
01 22:55 NW 7 G 16 10.00 Fair CLR 73.4 57.2 57% 29.87 0.0
01 22:35 NW 10 10.00 Fair CLR 75.2 55.4 50% 78 29.86 0.0
01 22:15 NW 7 10.00 Fair CLR 75.2 53.6 47% 78 29.86 0.0
01 21:55 NW 8 10.00 Fair CLR 75.2 53.6 47% 78 29.85 0.0
01 21:35 NW 9 10.00 Fair CLR 77 51.8 42% 78 29.85 0.0
01 21:15 NW 9 10.00 Fair CLR 78.8 51.8 39% 79 29.85 0.0
01 20:55 NW 7 10.00 Fair CLR 78.8 50 37% 79 29.84 0.0
01 20:35 NW 7 10.00 Fair CLR 80.6 50 34% 80 29.83 0.0
01 20:15 NW 7 10.00 Fair CLR 80.6 50 34% 80 29.83 0.0
01 19:55 NW 7 10.00 Fair CLR 82.4 48.2 30% 81 29.82 0.0
01 19:35 NW 8 10.00 Fair CLR 82.4 44.6 26% 81 29.82 0.0
01 19:15 NW 7 10.00 Fair CLR 84.2 44.6 25% 82 29.82 0.0
01 18:55 N 8 10.00 Fair CLR 84.2 46.4 27% 82 29.82 0.0
01 18:35 N 8 10.00 Fair CLR 86 48.2 27% 83 29.82 0.0
01 18:15 N 9 10.00 Fair CLR 87.8 46.4 24% 85 29.82 0.0
01 17:55 NW 12 10.00 Fair CLR 86 44.6 24% 83 29.83 0.0
01 17:35 NW 8 10.00 Fair CLR 87.8 46.4 24% 85 29.82 0.0
01 17:15 N 6 G 13 10.00 Fair CLR 87.8 44.6 22% 85 29.83 0.0
01 16:55 NW 12 10.00 Fair CLR 87.8 46.4 24% 85 29.83 0.0
01 16:35 W 13 10.00 Fair CLR 87.8 48.2 25% 85 29.84 0.0
01 16:15 NW 9 G 17 10.00 Fair CLR 87.8 48.2 25% 85 29.84 0.0
01 15:55 W 10 10.00 Fair CLR 87.8 50 27% 85 29.85 0.0
01 15:35 W 8 10.00 Fair CLR 87.8 50 27% 85 29.86 0.0
01 15:15 NW 7 G 17 10.00 Fair CLR 86 50 29% 84 29.87 0.0
01 14:55 W 12 10.00 Fair CLR 86 50 29% 84 29.88 0.0
01 14:35 W 9 G 15 10.00 Fair CLR 86 50 29% 84 29.89 0.0
01 14:15 W 8 10.00 Fair CLR 84.2 50 31% 82 29.89 0.0
01 13:55 Vrbl 3 G 13 10.00 Fair CLR 84.2 50 31% 82 29.9 0.0
01 13:35 W 8 10.00 Fair CLR 84.2 51.8 33% 82 29.9 0.0
01 13:15 Calm 10.00 Fair CLR 82.4 51.8 35% 81 29.91 0.0
01 12:55 Vrbl 6 G 14 10.00 Fair CLR 82.4 51.8 35% 81 29.92 0.0
01 12:35 Vrbl 7 10.00 Fair CLR 80.6 51.8 37% 80 29.93 0.0
01 12:15 W 8 G 14 10.00 Fair CLR 80.6 51.8 37% 80 29.94 0.0
01 11:55 NW 8 10.00 Fair CLR 78.8 51.8 39% 79 29.94 0.0
01 11:35 Calm 10.00 Fair CLR 77 53.6 44% 78 29.95 0.0
01 11:15 W 6 10.00 Fair CLR 77 53.6 44% 78 29.96 0.0
01 10:55 Calm 10.00 Fair CLR 75.2 53.6 47% 78 29.96 0.0
01 10:35 Calm 10.00 Fair CLR 73.4 53.6 50% 29.96 0.0
01 10:15 Calm 10.00 Fair CLR 73.4 53.6 50% 29.96 0.0
01 09:55 W 3 10.00 Fair CLR 71.6 53.6 53% 29.97 0.0
01 09:35 Calm 10.00 Fair CLR 69.8 51.8 53% 29.97 0.0
01 09:15 Calm 10.00 Fair CLR 68 51.8 56% 29.97 0.0
01 08:55 NW 6 10.00 Fair CLR 66.2 51.8 60% 29.97 0.0
01 08:35 NW 6 10.00 Fair CLR 64.4 51.8 64% 29.97 0.0
01 08:15 NW 7 10.00 Fair CLR 62.6 53.6 73% 29.96 0.0
01 07:55 NW 5 10.00 Fair CLR 62.6 53.6 73% 29.96 0.0
01 07:35 W 6 10.00 Fair CLR 60.8 53.6 77% 29.95 0.0
01 07:15 W 5 9.00 Fair CLR 59 53.6 82% 29.95 0.0
01 06:55 Calm 10.00 Fair CLR 59 53.6 82% 29.94 0.0
01 06:35 Calm 10.00 Fair CLR 57.2 53.6 88% 29.93 0.0
01 06:15 Calm 10.00 Fair CLR 57.2 53.6 88% 29.92 0.0
01 05:55 Calm 10.00 Fair CLR 57.2 53.6 88% 29.92 0.0
01 05:35 Calm 9.00 Fair CLR 57.2 53.6 88% 29.92 0.0
01 05:15 Calm 10.00 Fair CLR 59 53.6 82% 29.91 0.0
01 04:55 Calm 10.00 Fair CLR 60.8 53.6 77% 29.91 0.0
01 04:35 Calm 10.00 Fair CLR 59 53.6 82% 29.9 0.0
01 04:15 Calm 10.00 Fair CLR 60.8 51.8 72% 29.9 0.0
01 03:55 Calm 10.00 Fair CLR 60.8 53.6 77% 29.91 0.0
01 03:35 Calm 10.00 Fair CLR 60.8 53.6 77% 29.91 0.0
01 03:15 NW 6 10.00 Fair CLR 60.8 51.8 72% 29.9 0.0
01 02:55 NW 5 10.00 Fair CLR 60.8 53.6 77% 29.9 0.0
01 02:35 NW 3 10.00 Fair CLR 60.8 53.6 77% 29.9 0.0
01 02:15 NW 5 10.00 Fair CLR 62.6 53.6 73% 29.9 0.0
01 01:50 NW 7 10.00 Fair CLR 62.6 53.6 73% 29.9 0.0
01 01:30 NW 7 10.00 Fair CLR 64.4 53.6 68% 29.9 0.0
01 01:15 NW 7 10.00 Fair CLR 64.4 53.6 68% 29.9 0.0
01 00:55 NW 7 10.00 Fair CLR 64.4 53.6 68% 29.9 0.0
01 00:35 NW 8 10.00 Fair CLR 66.2 53.6 64% 29.9 0.0
01 00:15 NW 7 10.00 Fair CLR 66.2 53.6 64% 29.9 0.0
30 23:55 NW 7 10.00 Fair CLR 66.2 53.6 64% 29.89 0.0
30 23:35 NW 7 10.00 Fair CLR 68 53.6 60% 29.89 0.0
30 23:10 NW 10 10.00 Fair CLR 69.8 53.6 57% 29.89 0.0
30 22:50 NW 9 10.00 Fair CLR 69.8 53.6 57% 29.89 0.0
30 22:30 NW 8 10.00 Fair CLR 71.6 53.6 53% 29.89 0.0
30 22:10 NW 6 10.00 Fair CLR 71.6 53.6 53% 29.88 0.0
30 21:50 NW 6 10.00 Fair CLR 73.4 51.8 47% 29.88 0.0
30 21:35 NW 6 10.00 Fair CLR 73.4 51.8 47% 29.88 0.0
30 21:15 NW 7 10.00 Fair CLR 73.4 51.8 47% 29.88 0.0
30 20:55 NW 7 10.00 Fair CLR 75.2 51.8 44% 78 29.87 0.0
30 20:35 NW 7 10.00 Fair CLR 77 50 39% 78 29.86 0.0
30 20:10 NW 7 G 14 10.00 Fair CLR 78.8 48.2 34% 79 29.85 0.0
30 19:50 NW 9 10.00 Fair CLR 78.8 48.2 34% 79 29.85 0.0
30 19:30 NW 10 10.00 Fair CLR 80.6 48.2 32% 80 29.85 0.0
30 19:10 NW 13 10.00 Fair CLR 80.6 46.4 30% 80 29.84 0.0
30 18:50 N 8 G 16 10.00 Fair CLR 82.4 46.4 28% 81 29.84 0.0
30 18:35 N 12 10.00 Fair CLR 82.4 48.2 30% 81 29.84 0.0
30 18:15 NW 12 10.00 Fair CLR 82.4 48.2 30% 81 29.84 0.0
30 17:55 NW 12 G 17 10.00 Fair CLR 82.4 48.2 30% 81 29.84 0.0
30 17:35 NW 10 10.00 Fair CLR 84.2 48.2 29% 82 29.84 0.0
30 17:15 NW 14 10.00 Fair CLR 84.2 48.2 29% 82 29.84 0.0
30 16:55 NW 9 10.00 Fair CLR 84.2 48.2 29% 82 29.84 0.0
30 16:35 NW 8 G 16 10.00 Fair CLR 84.2 48.2 29% 82 29.85 0.0
30 16:15 NW 10 10.00 Fair CLR 84.2 46.4 27% 82 29.85 0.0
30 15:50 NW 13 10.00 Fair CLR 82.4 48.2 30% 81 29.86 0.0
30 15:30 W 12 10.00 Fair CLR 82.4 48.2 30% 81 29.87 0.0
30 15:10 NW 9 10.00 Fair CLR 82.4 48.2 30% 81 29.88 0.0
30 14:50 NW 10 G 18 10.00 Fair CLR 84.2 48.2 29% 82 29.89 0.0
30 14:30 N 13 10.00 Fair CLR 82.4 48.2 30% 81 29.89 0.0
30 14:10 NW 9 G 17 10.00 Fair CLR 80.6 46.4 30% 80 29.9 0.0
30 13:50 W 10 G 17 10.00 Fair CLR 80.6 46.4 30% 80 29.9 0.0
30 13:30 NW 14 10.00 Fair CLR 80.6 46.4 30% 80 29.91 0.0
30 13:15 Vrbl 7 G 16 10.00 Fair CLR 78.8 46.4 32% 79 29.91 0.0
30 12:55 Vrbl 6 G 12 10.00 Fair CLR 78.8 46.4 32% 79 29.92 0.0
30 12:35 Calm 10.00 Fair CLR 78.8 46.4 32% 79 29.93 0.0
30 12:15 NW 6 G 13 10.00 Fair CLR 78.8 46.4 32% 79 29.93 0.0
30 11:50 Calm 10.00 Fair CLR 77 46.4 34% 78 29.94 0.0
30 11:35 Calm 10.00 Fair CLR 75.2 46.4 36% 77 29.95 0.0
30 11:15 Vrbl 5 10.00 Fair CLR 75.2 46.4 36% 77 29.95 0.0
30 10:55 N 6 10.00 Fair CLR 73.4 46.4 38% 29.96 0.0
30 10:35 W 6 10.00 Fair CLR 73.4 44.6 36% 29.96 0.0
30 10:15 Vrbl 6 10.00 Fair CLR 71.6 44.6 38% 29.96 0.0
30 09:55 Vrbl 7 10.00 Fair CLR 69.8 44.6 40% 29.96 0.0
30 09:35 N 6 10.00 Fair CLR 69.8 46.4 43% 29.97 0.0
30 09:15 N 5 10.00 Fair CLR 68 48.2 49% 29.97 0.0
30 08:50 NW 5 10.00 Fair CLR 66.2 48.2 52% 29.97 0.0
30 08:30 NW 6 10.00 Fair CLR 64.4 48.2 56% 29.96 0.0
30 08:10 Vrbl 5 10.00 Fair CLR 62.6 46.4 56% 29.96 0.0
30 07:50 NW 3 10.00 Fair CLR 60.8 46.4 59% 29.96 0.0
30 07:30 Vrbl 3 10.00 Fair CLR 60.8 46.4 59% 29.96 0.0
30 07:10 NW 6 10.00 Fair CLR 59 44.6 59% 29.95 0.0
30 06:50 Calm 10.00 Fair CLR 57.2 44.6 63% 29.95 0.0
30 06:30 NW 6 10.00 Fair CLR 55.4 44.6 67% 29.94 0.0
30 06:10 NW 7 10.00 Fair CLR 57.2 44.6 63% 29.94 0.0
30 05:50 NW 8 10.00 Fair CLR 55.4 44.6 67% 29.94 0.0
30 05:30 W 5 10.00 Fair CLR 55.4 46.4 72% 29.94 0.0
30 05:10 NW 7 10.00 Fair CLR 57.2 46.4 67% 29.94 0.0
30 04:50 NW 6 10.00 Fair CLR 57.2 48.2 72% 29.94 0.0
30 04:30 NW 5 10.00 Fair CLR 57.2 48.2 72% 29.94 0.0
30 04:10 W 3 10.00 Fair CLR 57.2 48.2 72% 29.94 0.0
30 03:50 W 5 10.00 Fair CLR 59 48.2 68% 29.94 0.0
30 03:30 W 6 10.00 Fair CLR 59 46.4 63% 29.94 0.0
30 03:10 W 3 10.00 Fair CLR 60.8 46.4 59% 29.94 0.0
30 02:50 NW 6 10.00 Fair CLR 60.8 46.4 59% 29.94 0.0
30 02:30 NW 7 10.00 Fair CLR 62.6 46.4 56% 29.95 0.0
30 02:10 NW 8 10.00 Fair CLR 64.4 44.6 49% 29.95 0.0
30 01:50 NW 10 10.00 Fair CLR 64.4 46.4 52% 29.96 0.0
30 01:35 NW 9 10.00 Fair CLR 64.4 48.2 56% 29.96 0.0
30 01:15 NW 8 G 14 10.00 Fair CLR 64.4 48.2 56% 29.96 0.0
30 00:55 NW 10 10.00 Fair CLR 64.4 50 60% 29.97 0.0
30 00:30 NW 10 10.00 Fair CLR 64.4 50 60% 29.97 0.0
30 00:15 NW 9 10.00 Fair CLR 64.4 50 60% 29.97 0.0
29 23:55 NW 8 G 14 10.00 Fair CLR 64.4 50 60% 29.98 0.0
29 23:35 NW 10 10.00 Fair CLR 64.4 50 60% 29.97 0.0
29 23:15 NW 12 10.00 Fair CLR 66.2 48.2 52% 29.97 0.0
29 22:50 NW 8 10.00 Fair CLR 68 46.4 46% 29.97 0.0
29 22:35 NW 7 10.00 Fair CLR 69.8 46.4 43% 29.97 0.0
29 22:10 NW 8 10.00 Fair CLR 71.6 46.4 41% 29.97 0.0
29 21:50 NW 8 10.00 Fair CLR 71.6 44.6 38% 29.96 0.0
29 21:30 NW 8 10.00 Fair CLR 71.6 44.6 38% 29.96 0.0
29 21:10 NW 7 10.00 Fair CLR 71.6 44.6 38% 29.96 0.0
29 20:50 NW 7 10.00 Fair CLR 71.6 44.6 38% 29.95 0.0
29 20:35 NW 6 10.00 Fair CLR 71.6 44.6 38% 29.94 0.0
29 20:15 NW 7 10.00 A Few Clouds FEW013 73.4 44.6 36% 29.94 0.0
29 19:55 NW 8 10.00 Fair CLR 75.2 42.8 31% 77 29.93 0.0
29 19:30 NW 9 G 15 10.00 Fair CLR 77 39.2 26% 77 29.93 0.0
29 19:15 NW 10 10.00 Fair CLR 77 39.2 26% 77 29.93 0.0
29 18:55 NW 12 10.00 Fair CLR 78.8 41 26% 78 29.93 0.0
29 18:30 NW 12 10.00 Fair CLR 78.8 39.2 24% 78 29.93 0.0
29 18:10 NW 9 10.00 Fair CLR 80.6 39.2 23% 79 29.93 0.0
29 17:50 N 6 G 12 10.00 Fair CLR 80.6 39.2 23% 79 29.94 0.0
29 17:30 NW 9 10.00 Fair CLR 80.6 39.2 23% 79 29.94 0.0
29 17:15 NW 8 10.00 Fair CLR 80.6 41 24% 79 29.94 0.0
29 16:55 W 10 10.00 Fair CLR 80.6 42.8 26% 79 29.94 0.0
29 16:35 N 8 10.00 Fair CLR 80.6 41 24% 79 29.95 0.0
Date Time (pdt) Wind (mph) Vis. (mi.) Weather Sky Cond. Air Dwpt Max. Min. Relative Humidity Wind Chill (°F) Heat Index (°F) altimeter (in) sea level (mb) 1 hr 3 hr 6 hr
6 hour
Temperature (ºF) Pressure Precipitation (in)